createdAt,value
2022-08-05T00:00:17.088Z,4.35
2022-08-05T00:02:51.393Z,7.10
2022-08-05T00:06:02.764Z,5.57
2022-08-05T00:08:34.054Z,6.32
2022-08-05T00:11:00.923Z,5.20
2022-08-05T00:13:39.273Z,6.88
2022-08-05T00:16:08.897Z,6.63
2022-08-05T00:18:38.029Z,4.35
2022-08-05T00:21:06.969Z,3.92
2022-08-05T00:23:46.251Z,7.00
2022-08-05T00:26:22.162Z,6.35
2022-08-05T00:28:50.700Z,5.68
2022-08-05T00:31:54.148Z,6.65
2022-08-05T00:34:55.132Z,5.55
2022-08-05T00:37:12.635Z,6.43
2022-08-05T00:39:57.884Z,5.35
2022-08-05T00:42:33.627Z,6.55
2022-08-05T00:45:02.009Z,7.85
2022-08-05T00:47:53.091Z,6.57
2022-08-05T00:50:20.899Z,4.80
2022-08-05T00:52:49.528Z,5.68
2022-08-05T00:55:23.124Z,8.38
2022-08-05T00:58:02.818Z,5.97
2022-08-05T01:00:33.327Z,5.18
2022-08-05T01:03:02.221Z,6.75
2022-08-05T01:05:36.777Z,6.55
2022-08-05T01:08:43.310Z,7.88
2022-08-05T01:10:56.541Z,8.30
2022-08-05T01:13:58.346Z,6.82
2022-08-05T01:16:26.060Z,8.18
2022-08-05T01:18:59.135Z,9.27
2022-08-05T01:21:44.074Z,8.95
2022-08-05T01:24:25.627Z,7.00
2022-08-05T01:27:02.619Z,7.95
2022-08-05T01:29:50.645Z,8.05
2022-08-05T01:32:22.404Z,7.18
2022-08-05T01:34:52.825Z,10.35
2022-08-05T01:37:25.172Z,9.85
2022-08-05T01:39:59.215Z,8.85
2022-08-05T01:42:28.975Z,7.72
2022-08-05T01:45:02.263Z,6.90
2022-08-05T01:47:39.343Z,7.68
2022-08-05T01:50:15.268Z,8.38
2022-08-05T01:52:49.873Z,8.07
2022-08-05T01:55:19.460Z,8.07
2022-08-05T01:58:10.295Z,7.15
2022-08-05T02:00:40.692Z,6.90
2022-08-05T02:03:24.223Z,9.23
2022-08-05T02:06:00.983Z,7.22
2022-08-05T02:08:31.781Z,9.25
2022-08-05T02:11:04.425Z,8.43
2022-08-05T02:13:53.474Z,10.70
2022-08-05T02:16:24.903Z,9.98
2022-08-05T02:18:57.966Z,8.73
2022-08-05T02:21:28.189Z,9.63
2022-08-05T02:24:01.174Z,7.95
2022-08-05T02:26:35.344Z,7.93
2022-08-05T02:29:04.004Z,7.53
2022-08-05T02:31:35.279Z,10.00
2022-08-05T02:34:05.841Z,7.90
2022-08-05T02:36:38.260Z,11.00
2022-08-05T02:39:08.613Z,7.53
2022-08-05T02:41:57.648Z,8.77
2022-08-05T02:44:27.489Z,7.22
2022-08-05T02:47:00.235Z,7.55
2022-08-05T02:49:35.735Z,8.18
2022-08-05T02:52:06.237Z,10.73
2022-08-05T02:54:37.213Z,7.80
2022-08-05T02:57:10.346Z,9.07
2022-08-05T02:59:55.473Z,7.68
2022-08-05T03:02:27.790Z,9.02
2022-08-05T03:04:56.336Z,8.43
2022-08-05T03:08:01.372Z,8.27
2022-08-05T03:10:24.594Z,15.18
2022-08-05T03:12:54.022Z,8.18
2022-08-05T03:15:23.694Z,8.55
2022-08-05T03:17:54.261Z,8.05
2022-08-05T03:20:24.834Z,10.70
2022-08-05T03:22:57.294Z,8.23
2022-08-05T03:25:33.938Z,10.00
2022-08-05T03:28:14.844Z,10.02
2022-08-05T03:30:48.100Z,8.77
2022-08-05T03:33:18.127Z,10.05
2022-08-05T03:35:46.944Z,10.48
2022-08-05T03:38:15.708Z,10.45
2022-08-05T03:40:45.114Z,7.35
2022-08-05T03:44:09.571Z,11.35
2022-08-05T03:46:04.857Z,7.13
2022-08-05T03:48:35.208Z,8.45
2022-08-05T03:52:39.199Z,6.68
2022-08-05T03:55:52.303Z,8.02
2022-08-05T03:56:49.909Z,7.85
2022-08-05T03:59:20.361Z,10.00
2022-08-05T04:01:51.228Z,7.38
2022-08-05T04:04:22.304Z,9.17
2022-08-05T04:06:55.130Z,10.77
2022-08-05T04:09:25.936Z,8.80
2022-08-05T04:11:56.538Z,12.55
2022-08-05T04:14:30.233Z,9.30
2022-08-05T04:16:59.632Z,9.07
2022-08-05T04:19:29.481Z,10.57
2022-08-05T04:22:08.528Z,14.43
2022-08-05T04:24:43.824Z,10.17
2022-08-05T04:27:12.936Z,9.17
2022-08-05T04:29:41.670Z,12.33
2022-08-05T04:32:11.113Z,12.67
2022-08-05T04:34:42.952Z,9.57
2022-08-05T04:37:11.856Z,9.32
2022-08-05T04:39:41.110Z,11.35
2022-08-05T04:42:09.977Z,9.00
2022-08-05T04:44:39.250Z,10.70
2022-08-05T04:47:09.572Z,8.93
2022-08-05T04:50:02.885Z,11.13
2022-08-05T04:52:28.753Z,8.32
2022-08-05T04:54:57.962Z,11.35
2022-08-05T04:57:37.272Z,9.63
2022-08-05T05:00:06.107Z,10.77
2022-08-05T05:02:41.716Z,11.27
2022-08-05T05:05:17.016Z,9.10
2022-08-05T05:08:01.620Z,14.63
2022-08-05T05:10:30.705Z,9.85
2022-08-05T05:13:04.070Z,7.80
2022-08-05T05:15:56.481Z,9.53
2022-08-05T05:18:28.355Z,9.88
2022-08-05T05:20:59.603Z,12.10
2022-08-05T05:24:01.824Z,10.98
2022-08-05T05:26:18.273Z,8.95
2022-08-05T05:28:46.549Z,11.18
2022-08-05T05:31:15.113Z,11.90
2022-08-05T05:34:01.720Z,10.30
2022-08-05T05:36:30.945Z,13.55
2022-08-05T05:39:03.843Z,8.70
2022-08-05T05:41:40.915Z,8.57
2022-08-05T05:44:35.963Z,10.30
2022-08-05T05:47:04.335Z,9.52
2022-08-05T05:49:36.072Z,10.02
2022-08-05T05:52:07.272Z,12.57
2022-08-05T05:54:50.456Z,11.23
2022-08-05T05:57:19.944Z,8.47
2022-08-05T05:59:49.155Z,9.40
2022-08-05T06:02:36.856Z,8.32
2022-08-05T06:05:10.642Z,11.35
2022-08-05T06:07:57.962Z,8.57
2022-08-05T06:10:36.256Z,13.13
2022-08-05T06:13:05.890Z,10.43
2022-08-05T06:16:30.902Z,15.65
2022-08-05T06:18:31.009Z,17.55
2022-08-05T06:21:00.069Z,21.30
2022-08-05T06:23:43.726Z,19.83
2022-08-05T06:26:21.572Z,9.57
2022-08-05T06:28:52.445Z,15.27
2022-08-05T06:31:22.091Z,11.45
2022-08-05T06:34:06.201Z,8.77
2022-08-05T06:36:53.424Z,10.10
2022-08-05T06:39:27.160Z,8.20
2022-08-05T06:41:58.922Z,60.85
2022-08-05T06:44:28.168Z,16.55
2022-08-05T06:46:56.850Z,10.82
2022-08-05T06:50:01.582Z,11.90
2022-08-05T06:52:36.863Z,8.97
2022-08-05T06:55:02.432Z,23.97
2022-08-05T06:57:57.227Z,10.13
2022-08-05T07:00:22.140Z,8.53
2022-08-05T07:02:54.110Z,11.57
2022-08-05T07:05:27.569Z,11.87
2022-08-05T07:08:06.265Z,8.67
2022-08-05T07:10:39.168Z,17.87
2022-08-05T07:13:57.932Z,6.13
2022-08-05T07:18:02.050Z,10.20
2022-08-05T07:22:29.048Z,6.40
2022-08-05T07:24:59.537Z,6.70
2022-08-05T07:27:58.374Z,8.90
2022-08-05T07:30:33.770Z,5.70
2022-08-05T07:33:05.058Z,8.53
2022-08-05T07:36:02.810Z,5.87
2022-08-05T07:38:32.942Z,8.50
2022-08-05T07:42:08.709Z,5.67
2022-08-05T07:43:52.623Z,7.13
2022-08-05T07:46:26.033Z,7.63
2022-08-05T07:49:02.100Z,5.40
2022-08-05T07:51:36.204Z,5.23
2022-08-05T07:54:06.220Z,6.33
2022-08-05T07:57:00.004Z,5.90
2022-08-05T07:59:38.580Z,5.77
2022-08-05T08:02:15.809Z,6.57
2022-08-05T08:04:45.761Z,6.47
2022-08-05T08:07:15.022Z,5.37
2022-08-05T08:09:43.716Z,6.90
2022-08-05T08:12:35.639Z,6.63
2022-08-05T08:15:02.280Z,6.00
2022-08-05T08:17:35.331Z,6.10
2022-08-05T08:20:43.058Z,6.90
2022-08-05T08:22:55.774Z,8.87
2022-08-05T08:25:26.971Z,5.67
2022-08-05T08:28:18.189Z,5.47
2022-08-05T08:30:49.863Z,6.10
2022-08-05T08:33:19.916Z,7.43
2022-08-05T08:35:53.896Z,6.50
2022-08-05T08:38:37.741Z,11.93
2022-08-05T08:41:08.433Z,5.93
2022-08-05T08:45:23.067Z,6.27
2022-08-05T08:46:29.139Z,9.77
2022-08-05T08:49:09.554Z,4.07
2022-08-05T08:52:05.770Z,4.83
2022-08-05T08:54:38.095Z,5.50
2022-08-05T08:57:13.456Z,7.70
2022-08-05T08:59:47.253Z,4.73
2022-08-05T09:02:18.959Z,5.70
2022-08-05T09:05:16.440Z,6.47
2022-08-05T09:07:40.095Z,5.23
2022-08-05T09:10:27.697Z,4.40
2022-08-05T09:12:59.878Z,7.43
2022-08-05T09:15:37.004Z,6.45
2022-08-05T09:18:07.641Z,5.57
2022-08-05T09:20:38.706Z,6.20
2022-08-05T09:23:18.766Z,6.22
2022-08-05T09:26:01.374Z,5.90
2022-08-05T09:28:33.196Z,4.87
2022-08-05T09:31:22.440Z,6.10
2022-08-05T09:33:56.204Z,5.77
2022-08-05T09:36:27.803Z,3.40
2022-08-05T09:39:02.897Z,8.50
2022-08-05T09:41:33.180Z,6.95
2022-08-05T09:44:06.783Z,6.28
2022-08-05T09:46:35.689Z,5.72
2022-08-05T09:49:19.365Z,5.13
2022-08-05T09:51:50.400Z,5.47
2022-08-05T09:54:29.002Z,5.63
2022-08-05T09:57:01.534Z,4.10
2022-08-05T09:59:35.187Z,4.63
2022-08-05T10:02:06.598Z,2.70
2022-08-05T10:04:38.642Z,3.17
2022-08-05T10:07:20.922Z,4.45
2022-08-05T10:10:13.909Z,3.45
2022-08-05T10:12:50.095Z,3.78
2022-08-05T10:15:23.184Z,6.15
2022-08-05T10:18:09.563Z,3.58
2022-08-05T10:20:39.205Z,3.13
2022-08-05T10:23:34.473Z,6.38
2022-08-05T10:26:00.878Z,3.78
2022-08-05T10:28:30.633Z,4.38
2022-08-05T10:32:59.520Z,5.03
2022-08-05T10:33:52.336Z,4.70
2022-08-05T10:36:23.443Z,4.93
2022-08-05T10:38:57.279Z,7.22
2022-08-05T10:41:46.908Z,3.28
2022-08-05T10:44:18.701Z,4.40
2022-08-05T10:46:50.865Z,2.97
2022-08-05T10:49:26.651Z,4.18
2022-08-05T10:52:00.720Z,3.03
2022-08-05T10:55:04.995Z,3.60
2022-08-05T10:57:34.946Z,6.85
2022-08-05T11:00:14.764Z,6.90
2022-08-05T11:03:23.424Z,3.17
2022-08-05T11:06:15.493Z,4.57
2022-08-05T11:08:59.683Z,3.47
2022-08-05T11:11:44.356Z,3.80
2022-08-05T11:17:59.485Z,4.60
2022-08-05T11:20:43.878Z,6.05
2022-08-05T11:23:33.745Z,4.22
2022-08-05T11:26:29.287Z,5.60
2022-08-05T11:29:06.632Z,3.95
2022-08-05T11:31:58.503Z,4.50
2022-08-05T11:34:38.896Z,3.85
2022-08-05T11:38:30.350Z,3.45
2022-08-05T11:40:03.280Z,4.68
2022-08-05T11:42:37.934Z,6.55
2022-08-05T11:45:14.200Z,8.05
2022-08-05T11:47:55.328Z,3.90
2022-08-05T11:50:23.769Z,3.70
2022-08-05T11:52:57.600Z,5.40
2022-08-05T11:55:32.100Z,5.97
2022-08-05T11:58:10.088Z,6.70
2022-08-05T12:00:44.449Z,4.60
2022-08-05T12:03:28.586Z,4.93
2022-08-05T12:06:05.817Z,8.32
2022-08-05T12:08:35.136Z,5.13
2022-08-05T12:11:09.874Z,4.70
2022-08-05T12:13:55.148Z,4.22
2022-08-05T12:16:29.750Z,5.85
2022-08-05T12:18:58.002Z,5.15
2022-08-05T12:21:30.136Z,5.18
2022-08-05T12:24:04.578Z,5.95
2022-08-05T12:26:34.319Z,4.88
2022-08-05T12:29:03.261Z,5.22
2022-08-05T12:31:46.126Z,5.05
2022-08-05T12:34:20.394Z,6.25
2022-08-05T12:36:53.281Z,4.63
2022-08-05T12:39:22.019Z,4.28
2022-08-05T12:41:58.123Z,3.90
2022-08-05T12:44:33.503Z,4.47
2022-08-05T12:47:04.418Z,1.88
2022-08-05T12:50:03.389Z,4.13
2022-08-05T12:52:38.848Z,2.25
2022-08-05T12:55:22.494Z,2.83
2022-08-05T12:58:38.748Z,2.78
2022-08-05T13:02:04.166Z,3.88
2022-08-05T13:03:33.388Z,2.40
2022-08-05T13:06:01.879Z,3.47
2022-08-05T13:08:32.205Z,3.30
2022-08-05T13:11:01.863Z,2.30
2022-08-05T13:14:05.169Z,5.47
2022-08-05T13:16:19.488Z,1.23
2022-08-05T13:18:55.091Z,3.00
2022-08-05T13:21:28.570Z,1.65
2022-08-05T13:24:08.768Z,2.05
2022-08-05T13:26:37.404Z,2.20
2022-08-05T13:29:05.812Z,1.33
2022-08-05T13:32:04.441Z,3.17
2022-08-05T13:34:26.266Z,7.10
2022-08-05T13:36:55.195Z,2.83
2022-08-05T13:40:13.877Z,1.58
2022-08-05T13:42:14.425Z,2.22
2022-08-05T13:44:45.894Z,1.17
2022-08-05T13:47:35.281Z,1.13
2022-08-05T13:50:06.775Z,0.82
2022-08-05T13:52:39.800Z,0.82
2022-08-05T13:55:10.056Z,1.73
2022-08-05T13:57:48.691Z,2.35
2022-08-05T14:00:27.177Z,1.08
2022-08-05T14:02:56.433Z,1.80
2022-08-05T14:05:29.546Z,3.25
2022-08-05T14:08:21.017Z,3.17
2022-08-05T14:10:59.756Z,1.23
2022-08-05T14:13:47.994Z,1.58
2022-08-05T14:16:17.268Z,1.55
2022-08-05T14:18:47.821Z,1.45
2022-08-05T14:22:09.658Z,2.17
2022-08-05T14:24:10.991Z,1.85
2022-08-05T14:26:51.448Z,2.22
2022-08-05T14:29:27.886Z,8.35
2022-08-05T14:32:12.940Z,0.68
2022-08-05T14:34:45.864Z,2.25
2022-08-05T14:37:17.155Z,0.55
2022-08-05T14:39:50.087Z,1.48
2022-08-05T14:42:25.492Z,1.42
2022-08-05T14:44:54.383Z,5.65
2022-08-05T14:48:04.772Z,3.20
2022-08-05T14:50:17.709Z,1.35
2022-08-05T14:52:56.942Z,0.40
2022-08-05T14:55:38.415Z,1.50
2022-08-05T14:58:10.841Z,1.40
2022-08-05T15:00:57.975Z,1.40
2022-08-05T15:03:27.492Z,1.13
2022-08-05T15:06:06.957Z,0.68
2022-08-05T15:09:01.384Z,1.15
2022-08-05T15:11:51.323Z,5.47
2022-08-05T15:14:33.173Z,2.35
2022-08-05T15:17:04.810Z,2.97
2022-08-05T15:19:33.298Z,1.35
2022-08-05T15:22:01.794Z,1.33
2022-08-05T15:24:31.812Z,1.67
2022-08-05T15:27:00.086Z,1.50
2022-08-05T15:29:30.229Z,2.17
2022-08-05T15:32:03.032Z,1.45
2022-08-05T15:34:33.780Z,0.80
2022-08-05T15:37:06.952Z,2.30
2022-08-05T15:41:01.188Z,1.38
2022-08-05T15:42:57.688Z,0.95
2022-08-05T15:45:38.886Z,0.85
2022-08-05T15:48:07.712Z,1.33
2022-08-05T15:50:36.313Z,1.38
2022-08-05T15:53:06.710Z,2.28
2022-08-05T15:56:03.203Z,2.03
2022-08-05T15:58:28.548Z,1.52
2022-08-05T16:01:04.518Z,0.70
2022-08-05T16:03:44.393Z,2.38
2022-08-05T16:06:20.231Z,1.23
2022-08-05T16:08:51.162Z,2.42
2022-08-05T16:11:43.136Z,1.70
2022-08-05T16:14:17.404Z,1.33
2022-08-05T16:16:46.143Z,0.70
2022-08-05T16:19:18.941Z,3.08
2022-08-05T16:22:00.020Z,0.38
2022-08-05T16:24:41.177Z,0.90
2022-08-05T16:27:32.338Z,0.95
2022-08-05T16:30:25.667Z,1.17
2022-08-05T16:32:55.217Z,1.35
2022-08-05T16:35:27.911Z,0.88
2022-08-05T16:38:02.620Z,0.77
2022-08-05T16:40:47.744Z,1.30
2022-08-05T16:43:23.727Z,1.00
2022-08-05T16:46:04.730Z,0.90
2022-08-05T16:48:39.125Z,0.70
2022-08-05T16:51:09.894Z,2.58
2022-08-05T16:54:03.262Z,1.20
2022-08-05T16:56:27.939Z,1.35
2022-08-05T16:58:57.809Z,0.80
2022-08-05T17:01:26.287Z,1.27
2022-08-05T17:03:54.652Z,0.80
2022-08-05T17:06:24.772Z,1.38
2022-08-05T17:08:54.344Z,2.65
2022-08-05T17:11:25.407Z,1.10
2022-08-05T17:14:00.449Z,1.60
2022-08-05T17:16:37.078Z,1.45
2022-08-05T17:19:07.601Z,0.90
2022-08-05T17:21:39.566Z,0.90
2022-08-05T17:24:19.487Z,1.00
2022-08-05T17:26:58.223Z,0.90
2022-08-05T17:29:33.771Z,0.60
2022-08-05T17:32:11.230Z,0.70
2022-08-05T17:34:47.546Z,2.13
2022-08-05T17:37:39.567Z,0.47
2022-08-05T17:40:10.259Z,1.13
2022-08-05T17:42:41.645Z,0.90
2022-08-05T17:45:20.577Z,1.08
2022-08-05T17:47:56.102Z,1.25
2022-08-05T17:50:28.061Z,3.17
2022-08-05T17:52:58.874Z,1.85
2022-08-05T17:55:34.517Z,5.15
2022-08-05T17:58:09.917Z,2.00
2022-08-05T18:00:44.317Z,0.90
2022-08-05T18:03:28.009Z,1.40
2022-08-05T18:06:11.164Z,1.48
2022-08-05T18:08:44.470Z,1.08
2022-08-05T18:11:24.779Z,2.35
2022-08-05T18:14:03.390Z,1.35
2022-08-05T18:16:32.414Z,3.42
2022-08-05T18:19:02.117Z,1.08
2022-08-05T18:22:07.120Z,1.52
2022-08-05T18:24:18.742Z,1.38
2022-08-05T18:26:49.354Z,1.98
2022-08-05T18:29:17.714Z,2.58
2022-08-05T18:32:06.349Z,2.17
2022-08-05T18:34:40.698Z,2.53
2022-08-05T18:37:12.339Z,2.30
2022-08-05T18:40:31.742Z,2.17
2022-08-05T18:42:29.618Z,1.23
2022-08-05T18:44:57.996Z,1.40
2022-08-05T18:47:28.515Z,1.45
2022-08-05T18:50:18.715Z,2.63
2022-08-05T18:52:51.093Z,1.95
2022-08-05T18:55:21.456Z,0.68
2022-08-05T18:57:54.040Z,2.17
2022-08-05T19:00:31.477Z,1.95
2022-08-05T19:03:04.457Z,1.20
2022-08-05T19:06:11.320Z,2.17
2022-08-05T19:08:30.491Z,5.20
2022-08-05T19:10:59.768Z,2.22
2022-08-05T19:13:35.869Z,1.65
2022-08-05T19:16:05.720Z,1.40
2022-08-05T19:18:53.990Z,2.35
2022-08-05T19:21:27.458Z,2.30
2022-08-05T19:24:06.053Z,1.95
2022-08-05T19:26:36.890Z,2.97
2022-08-05T19:29:22.733Z,1.17
2022-08-05T19:31:51.413Z,1.52
2022-08-05T19:34:19.830Z,2.38
2022-08-05T19:36:51.910Z,3.15
2022-08-05T19:39:20.335Z,1.58
2022-08-05T19:42:06.162Z,4.22
2022-08-05T19:44:45.280Z,2.78
2022-08-05T19:47:16.429Z,1.40
2022-08-05T19:49:45.241Z,1.50
2022-08-05T19:52:40.405Z,2.70
2022-08-05T19:55:06.605Z,7.68
2022-08-05T19:57:49.082Z,2.10
2022-08-05T20:00:24.360Z,1.33
2022-08-05T20:02:53.073Z,1.70
2022-08-05T20:05:24.712Z,1.13
2022-08-05T20:07:58.985Z,1.00
2022-08-05T20:10:27.715Z,1.30
2022-08-05T20:12:57.363Z,1.90
2022-08-05T20:15:52.134Z,1.58
2022-08-05T20:18:32.781Z,1.13
2022-08-05T20:21:04.796Z,1.15
2022-08-05T20:23:39.726Z,2.45
2022-08-05T20:26:20.637Z,2.13
2022-08-05T20:28:50.867Z,3.35
2022-08-05T20:31:21.593Z,1.95
2022-08-05T20:33:51.449Z,1.17
2022-08-05T20:36:21.855Z,1.03
2022-08-05T20:38:54.265Z,0.75
2022-08-05T20:41:26.905Z,6.78
2022-08-05T20:43:58.666Z,1.60
2022-08-05T20:46:30.121Z,2.23
2022-08-05T20:48:58.560Z,0.70
2022-08-05T20:51:27.153Z,2.77
2022-08-05T20:53:57.510Z,1.57
2022-08-05T20:56:34.159Z,1.38
2022-08-05T20:59:19.313Z,3.83
2022-08-05T21:01:57.970Z,2.95
2022-08-05T21:04:27.290Z,1.55
2022-08-05T21:06:55.922Z,1.65
2022-08-05T21:09:25.696Z,1.30
2022-08-05T21:12:10.798Z,1.50
2022-08-05T21:14:40.326Z,3.35
2022-08-05T21:17:08.642Z,1.08
2022-08-05T21:19:46.410Z,2.83
2022-08-05T21:22:17.598Z,1.63
2022-08-05T21:24:51.424Z,1.57
2022-08-05T21:27:25.455Z,1.02
2022-08-05T21:29:56.303Z,2.93
2022-08-05T21:32:26.897Z,1.97
2022-08-05T21:35:18.406Z,2.97
2022-08-05T21:37:47.136Z,2.60
2022-08-05T21:40:23.859Z,3.37
2022-08-05T21:42:52.991Z,1.53
2022-08-05T21:45:51.805Z,2.73
2022-08-05T21:48:10.981Z,2.80
2022-08-05T21:50:41.987Z,2.53
2022-08-05T21:53:21.589Z,1.90
2022-08-05T21:56:04.848Z,1.47
2022-08-05T21:58:36.720Z,2.60
2022-08-05T22:01:11.040Z,1.80
2022-08-05T22:03:53.653Z,1.63
2022-08-05T22:06:35.393Z,1.60
2022-08-05T22:09:13.776Z,1.87
2022-08-05T22:11:46.722Z,3.10
2022-08-05T22:14:32.708Z,3.13
2022-08-05T22:17:04.852Z,6.53
2022-08-05T22:20:02.013Z,3.10
2022-08-05T22:22:27.399Z,2.97
2022-08-05T22:25:20.986Z,1.67
2022-08-05T22:28:08.112Z,2.07
2022-08-05T22:30:55.659Z,2.77
2022-08-05T22:33:58.407Z,1.37
2022-08-05T22:36:14.594Z,1.20
2022-08-05T22:38:43.535Z,1.73
2022-08-05T22:41:16.766Z,1.80
2022-08-05T22:44:06.767Z,2.60
2022-08-05T22:46:39.979Z,3.00
2022-08-05T22:49:12.506Z,3.13
2022-08-05T22:52:06.101Z,3.00
2022-08-05T22:54:36.982Z,3.97
2022-08-05T22:57:05.831Z,4.37
2022-08-05T22:59:43.640Z,2.83
2022-08-05T23:02:22.843Z,6.17
2022-08-05T23:04:57.575Z,3.27
2022-08-05T23:07:26.034Z,3.50
2022-08-05T23:10:01.584Z,4.57
2022-08-05T23:12:32.404Z,2.73
2022-08-05T23:15:03.961Z,2.63
2022-08-05T23:18:01.458Z,3.97
2022-08-05T23:20:26.206Z,4.83
2022-08-05T23:22:55.825Z,3.00
2022-08-05T23:25:51.551Z,3.00
2022-08-05T23:28:15.949Z,2.77
2022-08-05T23:30:53.426Z,2.30
2022-08-05T23:33:26.119Z,2.73
2022-08-05T23:36:13.465Z,3.40
2022-08-05T23:38:42.755Z,1.37
2022-08-05T23:41:11.536Z,1.90
2022-08-05T23:44:05.188Z,3.23
2022-08-05T23:46:29.783Z,2.43
2022-08-05T23:49:00.999Z,1.27
2022-08-05T23:51:52.403Z,3.53
2022-08-05T23:54:26.084Z,2.27
2022-08-05T23:56:55.607Z,2.13
